createdAt,value
2018-09-24T00:00:08.727Z,11.20
2018-09-24T00:02:37.804Z,10.93
2018-09-24T00:05:07.280Z,10.77
2018-09-24T00:07:36.490Z,11.02
2018-09-24T00:10:05.762Z,11.07
2018-09-24T00:12:34.904Z,11.21
2018-09-24T00:15:04.123Z,11.07
2018-09-24T00:17:33.394Z,10.87
2018-09-24T00:20:02.603Z,10.85
2018-09-24T00:22:31.763Z,10.94
2018-09-24T00:25:00.955Z,11.01
2018-09-24T00:27:30.806Z,10.98
2018-09-24T00:30:00.016Z,10.86
2018-09-24T00:32:29.151Z,10.92
2018-09-24T00:34:58.441Z,10.78
2018-09-24T00:37:27.665Z,10.80
2018-09-24T00:39:57.119Z,10.92
2018-09-24T00:42:26.341Z,10.84
2018-09-24T00:44:55.596Z,10.67
2018-09-24T00:47:24.790Z,10.65
2018-09-24T00:49:53.940Z,10.64
2018-09-24T00:52:23.124Z,10.65
2018-09-24T00:54:52.314Z,10.52
2018-09-24T00:57:21.495Z,10.47
2018-09-24T00:59:50.639Z,10.29
2018-09-24T01:02:19.756Z,10.37
2018-09-24T01:04:49.117Z,10.33
2018-09-24T01:07:18.288Z,10.22
2018-09-24T01:09:47.417Z,10.33
2018-09-24T01:12:16.606Z,10.16
2018-09-24T01:14:45.774Z,10.16
2018-09-24T01:17:15.058Z,10.23
2018-09-24T01:19:44.236Z,9.98
2018-09-24T01:22:13.438Z,9.94
2018-09-24T01:24:42.571Z,9.91
2018-09-24T01:27:11.752Z,9.90
2018-09-24T01:29:41.003Z,9.99
2018-09-24T01:32:10.297Z,10.04
2018-09-24T01:34:39.405Z,10.09
2018-09-24T01:37:08.674Z,10.08
2018-09-24T01:39:38.075Z,10.05
2018-09-24T01:42:07.233Z,9.87
2018-09-24T01:44:36.425Z,9.96
2018-09-24T01:47:05.591Z,9.82
2018-09-24T01:49:34.929Z,9.94
2018-09-24T01:52:04.141Z,9.96
2018-09-24T01:54:33.333Z,9.95
2018-09-24T01:57:02.523Z,9.87
2018-09-24T01:59:31.757Z,9.83
2018-09-24T02:02:00.953Z,9.93
2018-09-24T02:04:30.103Z,9.90
2018-09-24T02:07:01.401Z,9.83
2018-09-24T02:09:31.211Z,9.95
2018-09-24T02:12:05.526Z,9.75
2018-09-24T02:14:34.954Z,9.95
2018-09-24T02:17:04.147Z,9.97
2018-09-24T02:19:34.010Z,9.97
2018-09-24T02:22:03.389Z,9.97
2018-09-24T02:24:32.504Z,9.95
2018-09-24T02:27:05.924Z,9.78
2018-09-24T02:29:35.047Z,9.83
2018-09-24T02:32:04.190Z,9.87
2018-09-24T02:34:33.470Z,9.92
2018-09-24T02:37:02.798Z,9.85
2018-09-24T02:39:31.959Z,9.85
2018-09-24T02:42:01.092Z,9.77
2018-09-24T02:44:30.220Z,9.80
2018-09-24T02:46:59.360Z,9.78
2018-09-24T02:49:28.571Z,9.79
2018-09-24T02:52:02.310Z,9.86
2018-09-24T02:54:32.741Z,9.81
2018-09-24T02:57:01.927Z,9.55
2018-09-24T02:59:31.061Z,9.70
2018-09-24T03:02:00.203Z,9.52
2018-09-24T03:04:29.361Z,9.59
2018-09-24T03:06:58.540Z,9.53
2018-09-24T03:09:27.689Z,9.62
2018-09-24T03:11:57.330Z,9.56
2018-09-24T03:14:27.854Z,9.61
2018-09-24T03:16:57.135Z,9.49
2018-09-24T03:19:26.319Z,9.55
2018-09-24T03:21:55.472Z,9.46
2018-09-24T03:24:24.572Z,9.58
2018-09-24T03:26:53.840Z,9.55
2018-09-24T03:29:24.983Z,9.52
2018-09-24T03:31:54.207Z,9.55
2018-09-24T03:34:23.340Z,9.62
2018-09-24T03:36:52.576Z,9.38
2018-09-24T03:39:21.708Z,9.47
2018-09-24T03:41:50.936Z,9.40
2018-09-24T03:44:20.064Z,9.47
2018-09-24T03:46:50.178Z,9.30
2018-09-24T03:49:19.348Z,9.30
2018-09-24T03:51:48.585Z,9.20
2018-09-24T03:54:17.793Z,9.33
2018-09-24T03:56:46.990Z,9.38
2018-09-24T03:59:16.198Z,9.25
2018-09-24T04:01:45.444Z,9.37
2018-09-24T04:04:19.946Z,9.30
2018-09-24T04:06:54.504Z,9.27
2018-09-24T04:09:29.048Z,9.24
2018-09-24T04:12:03.458Z,8.96
2018-09-24T04:14:37.891Z,9.13
2018-09-24T04:17:12.406Z,9.04
2018-09-24T04:19:46.837Z,9.10
2018-09-24T04:22:21.373Z,8.91
2018-09-24T04:24:55.738Z,9.08
2018-09-24T04:27:30.113Z,9.04
2018-09-24T04:30:04.584Z,9.02
2018-09-24T04:32:39.093Z,8.82
2018-09-24T04:35:13.538Z,8.71
2018-09-24T04:37:48.092Z,8.56
2018-09-24T04:40:22.578Z,8.61
2018-09-24T04:42:57.263Z,8.57
2018-09-24T04:45:31.695Z,8.86
2018-09-24T04:48:06.258Z,8.74
2018-09-24T04:50:40.727Z,8.63
2018-09-24T04:53:15.235Z,8.78
2018-09-24T04:55:49.707Z,8.81
2018-09-24T04:58:24.181Z,8.97
2018-09-24T05:00:58.777Z,9.03
2018-09-24T05:03:33.265Z,8.90
2018-09-24T05:06:07.810Z,8.99
2018-09-24T05:08:42.239Z,8.98
2018-09-24T05:11:16.915Z,8.80
2018-09-24T05:13:51.499Z,8.83
2018-09-24T05:16:26.135Z,8.75
2018-09-24T05:19:00.571Z,8.51
2018-09-24T05:21:35.116Z,8.67
2018-09-24T05:24:09.533Z,8.57
2018-09-24T05:26:44.206Z,8.86
2018-09-24T05:29:18.664Z,8.84
2018-09-24T05:31:53.297Z,8.96
2018-09-24T05:34:27.892Z,8.71
2018-09-24T05:37:02.416Z,8.94
2018-09-24T05:39:36.949Z,9.11
2018-09-24T05:42:11.766Z,8.95
2018-09-24T05:44:46.190Z,8.78
2018-09-24T05:47:20.629Z,9.07
2018-09-24T05:49:55.028Z,8.97
2018-09-24T05:52:31.226Z,9.02
2018-09-24T05:55:06.754Z,9.17
2018-09-24T05:57:41.182Z,9.12
2018-09-24T06:00:15.494Z,8.82
2018-09-24T06:02:49.870Z,9.01
2018-09-24T06:05:24.164Z,9.08
2018-09-24T06:07:58.707Z,9.02
2018-09-24T06:10:33.156Z,9.02
2018-09-24T06:13:07.501Z,9.25
2018-09-24T06:15:41.996Z,9.20
2018-09-24T06:18:16.504Z,9.20
2018-09-24T06:20:50.940Z,9.15
2018-09-24T06:23:25.468Z,9.03
2018-09-24T06:26:00.019Z,8.96
2018-09-24T06:28:34.746Z,8.79
2018-09-24T06:31:09.230Z,8.81
2018-09-24T06:33:43.583Z,9.03
2018-09-24T06:36:18.174Z,9.07
2018-09-24T06:38:52.542Z,9.08
2018-09-24T06:41:26.991Z,9.23
2018-09-24T06:44:01.433Z,9.32
2018-09-24T06:46:36.003Z,9.30
2018-09-24T06:49:10.439Z,9.36
2018-09-24T06:51:44.866Z,9.45
2018-09-24T06:54:19.468Z,9.46
2018-09-24T06:56:53.956Z,9.45
2018-09-24T06:59:28.501Z,9.25
2018-09-24T07:02:02.919Z,9.42
2018-09-24T07:04:37.580Z,9.31
2018-09-24T07:07:12.032Z,9.08
2018-09-24T07:09:47.384Z,9.20
2018-09-24T07:12:21.940Z,9.23
2018-09-24T07:14:56.465Z,9.54
2018-09-24T07:17:30.983Z,9.54
2018-09-24T07:20:05.549Z,9.43
2018-09-24T07:22:39.887Z,9.84
2018-09-24T07:25:14.441Z,9.42
2018-09-24T07:27:48.901Z,9.61
2018-09-24T07:30:23.368Z,9.63
2018-09-24T07:32:57.997Z,9.83
2018-09-24T07:35:32.353Z,9.94
2018-09-24T07:38:06.822Z,10.12
2018-09-24T07:40:41.208Z,9.88
2018-09-24T07:43:15.752Z,9.60
2018-09-24T07:45:50.187Z,9.49
2018-09-24T07:48:24.692Z,9.39
2018-09-24T07:50:59.252Z,9.51
2018-09-24T07:53:33.638Z,10.01
2018-09-24T07:56:08.221Z,9.87
2018-09-24T07:58:42.733Z,10.12
2018-09-24T08:01:17.213Z,10.12
2018-09-24T08:03:51.743Z,10.17
2018-09-24T08:06:26.143Z,10.13
2018-09-24T08:09:00.732Z,9.76
2018-09-24T08:11:35.281Z,9.77
2018-09-24T08:14:09.756Z,9.99
2018-09-24T08:16:44.253Z,10.11
2018-09-24T08:19:18.708Z,9.85
2018-09-24T08:21:53.087Z,9.91
2018-09-24T08:24:27.706Z,10.12
2018-09-24T08:27:02.264Z,10.30
2018-09-24T08:29:36.778Z,10.12
2018-09-24T08:32:11.248Z,10.00
2018-09-24T08:34:45.877Z,10.34
2018-09-24T08:37:20.380Z,10.34
2018-09-24T08:39:54.888Z,10.23
2018-09-24T08:42:29.851Z,10.23
2018-09-24T08:45:04.352Z,10.23
2018-09-24T08:47:38.822Z,10.08
2018-09-24T08:50:13.444Z,10.33
2018-09-24T08:52:48.008Z,10.82
2018-09-24T08:55:22.513Z,10.84
2018-09-24T08:57:56.859Z,10.86
2018-09-24T09:00:31.350Z,10.86
2018-09-24T09:03:05.831Z,10.74
2018-09-24T09:05:40.188Z,10.54
2018-09-24T09:08:14.715Z,10.51
2018-09-24T09:10:49.035Z,10.80
2018-09-24T09:13:23.604Z,11.10
2018-09-24T09:15:58.161Z,11.18
2018-09-24T09:18:32.781Z,11.27
2018-09-24T09:21:07.248Z,10.91
2018-09-24T09:23:41.774Z,11.09
2018-09-24T09:26:16.243Z,10.86
2018-09-24T09:28:50.805Z,10.42
2018-09-24T09:31:25.993Z,10.82
2018-09-24T09:34:00.460Z,10.79
2018-09-24T09:36:34.817Z,10.97
2018-09-24T09:39:09.570Z,10.92
2018-09-24T09:41:44.100Z,11.01
2018-09-24T09:44:18.617Z,11.09
2018-09-24T09:46:53.082Z,11.29
2018-09-24T09:49:27.466Z,11.22
2018-09-24T09:52:01.944Z,11.02
2018-09-24T09:54:36.449Z,11.24
2018-09-24T09:57:10.976Z,11.19
2018-09-24T09:59:45.526Z,11.48
2018-09-24T10:02:20.004Z,11.50
2018-09-24T10:04:54.384Z,11.40
2018-09-24T10:07:28.857Z,12.04
2018-09-24T10:10:03.363Z,11.70
2018-09-24T10:12:37.765Z,11.39
2018-09-24T10:15:12.315Z,11.21
2018-09-24T10:17:46.824Z,11.05
2018-09-24T10:20:21.236Z,11.26
2018-09-24T10:22:55.804Z,11.13
2018-09-24T10:25:30.137Z,11.41
2018-09-24T10:28:04.615Z,11.62
2018-09-24T10:30:38.988Z,11.95
2018-09-24T10:33:13.440Z,12.28
2018-09-24T10:35:47.954Z,12.37
2018-09-24T10:38:22.508Z,12.24
2018-09-24T10:40:57.005Z,12.00
2018-09-24T10:43:31.560Z,11.84
2018-09-24T10:46:06.131Z,12.25
2018-09-24T10:48:40.441Z,12.47
2018-09-24T10:51:14.972Z,12.72
2018-09-24T10:53:49.554Z,12.85
2018-09-24T10:56:24.029Z,12.87
2018-09-24T10:58:58.404Z,12.75
2018-09-24T11:01:32.876Z,12.59
2018-09-24T11:04:07.370Z,12.81
2018-09-24T11:06:41.684Z,12.70
2018-09-24T11:09:16.168Z,12.59
2018-09-24T11:11:50.745Z,12.87
2018-09-24T11:14:25.280Z,13.24
2018-09-24T11:16:59.833Z,12.61
2018-09-24T11:19:34.084Z,12.11
2018-09-24T11:22:08.605Z,12.27
2018-09-24T11:24:42.915Z,12.52
2018-09-24T11:27:17.414Z,13.20
2018-09-24T11:29:51.829Z,12.70
2018-09-24T11:32:26.319Z,13.40
2018-09-24T11:35:00.727Z,13.85
2018-09-24T11:37:35.384Z,14.72
2018-09-24T11:40:09.836Z,15.11
2018-09-24T11:42:44.255Z,15.75
2018-09-24T11:45:18.752Z,13.68
2018-09-24T11:47:53.120Z,13.64
2018-09-24T11:50:27.595Z,13.14
2018-09-24T11:53:02.202Z,13.07
2018-09-24T11:55:37.111Z,15.44
2018-09-24T11:58:11.992Z,14.08
2018-09-24T12:00:46.499Z,16.63
2018-09-24T12:03:20.991Z,17.54
2018-09-24T12:05:55.472Z,15.71
2018-09-24T12:08:30.040Z,15.01
2018-09-24T12:11:04.593Z,16.82
2018-09-24T12:13:39.135Z,14.62
2018-09-24T12:16:13.869Z,13.90
2018-09-24T12:18:48.296Z,13.73
2018-09-24T12:21:22.797Z,13.41
2018-09-24T12:23:57.293Z,13.19
2018-09-24T12:26:31.789Z,13.35
2018-09-24T12:29:06.323Z,14.33
2018-09-24T12:31:40.900Z,13.07
2018-09-24T12:34:15.384Z,13.33
2018-09-24T12:36:50.045Z,14.23
2018-09-24T12:39:24.457Z,13.69
2018-09-24T12:41:58.961Z,16.27
2018-09-24T12:44:33.331Z,14.58
2018-09-24T12:47:07.869Z,16.87
2018-09-24T12:49:42.335Z,17.32
2018-09-24T12:52:16.812Z,18.90
2018-09-24T12:54:51.133Z,17.85
2018-09-24T12:57:25.707Z,15.77
2018-09-24T13:00:00.219Z,17.15
2018-09-24T13:02:34.654Z,18.45
2018-09-24T13:05:09.003Z,19.07
2018-09-24T13:07:43.563Z,19.44
2018-09-24T13:10:18.087Z,17.08
2018-09-24T13:12:52.631Z,18.17
2018-09-24T13:15:27.092Z,20.30
2018-09-24T13:18:01.589Z,19.91
2018-09-24T13:20:36.046Z,20.83
2018-09-24T13:23:10.468Z,21.66
2018-09-24T13:25:44.807Z,21.46
2018-09-24T13:28:19.342Z,21.27
2018-09-24T13:30:53.772Z,22.79
2018-09-24T13:33:28.451Z,23.35
2018-09-24T13:36:02.928Z,20.35
2018-09-24T13:38:37.448Z,16.69
2018-09-24T13:41:11.959Z,18.75
2018-09-24T13:43:46.475Z,19.59
2018-09-24T13:46:20.969Z,19.85
2018-09-24T13:48:55.323Z,17.88
2018-09-24T13:51:29.748Z,21.82
2018-09-24T13:54:04.136Z,23.87
2018-09-24T13:56:38.583Z,23.87
2018-09-24T13:59:13.090Z,22.04
2018-09-24T14:01:47.587Z,22.04
2018-09-24T14:04:22.048Z,23.07
2018-09-24T14:06:56.564Z,21.73
2018-09-24T14:09:31.049Z,23.24
2018-09-24T14:12:05.348Z,21.50
2018-09-24T14:14:39.760Z,22.16
2018-09-24T14:17:14.253Z,22.50
2018-09-24T14:19:48.830Z,23.17
2018-09-24T14:22:23.235Z,22.28
2018-09-24T14:24:57.711Z,21.67
2018-09-24T14:27:32.200Z,23.25
2018-09-24T14:30:06.773Z,21.85
2018-09-24T14:32:41.260Z,24.26
2018-09-24T14:35:15.789Z,22.58
2018-09-24T14:37:50.139Z,22.14
2018-09-24T14:40:24.666Z,22.14
2018-09-24T14:42:59.153Z,21.77
2018-09-24T14:45:33.611Z,22.39
2018-09-24T14:48:07.910Z,23.20
2018-09-24T14:50:42.385Z,21.85
2018-09-24T14:53:16.816Z,19.50
2018-09-24T14:55:51.281Z,21.41
2018-09-24T14:58:25.783Z,18.90
2018-09-24T15:01:00.316Z,17.01
2018-09-24T15:03:34.906Z,15.97
2018-09-24T15:06:09.350Z,15.35
2018-09-24T15:08:43.796Z,17.75
2018-09-24T15:11:18.359Z,19.63
2018-09-24T15:13:52.700Z,20.32
2018-09-24T15:16:27.137Z,20.64
2018-09-24T15:19:01.619Z,21.61
2018-09-24T15:21:36.304Z,20.38
2018-09-24T15:24:10.720Z,21.11
2018-09-24T15:26:45.035Z,21.05
2018-09-24T15:29:19.504Z,21.24
2018-09-24T15:31:54.076Z,20.51
2018-09-24T15:34:28.660Z,16.71
2018-09-24T15:37:03.070Z,18.10
2018-09-24T15:39:37.395Z,19.72
2018-09-24T15:42:11.806Z,18.83
2018-09-24T15:44:46.244Z,20.38
2018-09-24T15:47:20.651Z,20.46
2018-09-24T15:49:55.128Z,19.02
2018-09-24T15:52:30.270Z,20.04
2018-09-24T15:55:04.489Z,19.57
2018-09-24T15:57:38.917Z,20.51
2018-09-24T16:00:13.785Z,16.83
2018-09-24T16:02:48.294Z,15.64
2018-09-24T16:05:22.608Z,15.20
2018-09-24T16:07:57.194Z,14.81
2018-09-24T16:10:31.721Z,14.63
2018-09-24T16:13:06.221Z,14.34
2018-09-24T16:15:40.612Z,14.46
2018-09-24T16:18:15.123Z,14.48
2018-09-24T16:20:49.580Z,14.37
2018-09-24T16:23:24.112Z,14.18
2018-09-24T16:25:58.630Z,13.85
2018-09-24T16:28:33.181Z,13.89
2018-09-24T16:31:07.536Z,13.67
2018-09-24T16:33:42.024Z,13.47
2018-09-24T16:36:16.499Z,13.54
2018-09-24T16:38:51.032Z,13.53
2018-09-24T16:41:25.452Z,13.44
2018-09-24T16:43:59.740Z,12.94
2018-09-24T16:46:34.531Z,13.06
2018-09-24T16:49:08.923Z,13.06
2018-09-24T16:51:43.341Z,12.99
2018-09-24T16:54:17.725Z,12.87
2018-09-24T16:56:52.207Z,12.82
2018-09-24T16:59:26.704Z,12.80
2018-09-24T17:02:01.176Z,12.68
2018-09-24T17:04:35.608Z,12.36
2018-09-24T17:07:10.191Z,12.29
2018-09-24T17:09:44.698Z,12.30
2018-09-24T17:12:19.297Z,12.04
2018-09-24T17:14:53.823Z,12.13
2018-09-24T17:17:28.225Z,11.89
2018-09-24T17:20:02.589Z,11.98
2018-09-24T17:22:36.964Z,11.96
2018-09-24T17:25:11.369Z,11.78
2018-09-24T17:27:45.749Z,11.76
2018-09-24T17:30:20.336Z,11.72
2018-09-24T17:32:54.770Z,11.72
2018-09-24T17:35:29.395Z,11.78
2018-09-24T17:38:03.832Z,11.47
2018-09-24T17:40:38.250Z,11.54
2018-09-24T17:43:12.743Z,11.49
2018-09-24T17:45:47.172Z,11.28
2018-09-24T17:48:21.569Z,11.29
2018-09-24T17:50:56.080Z,11.34
2018-09-24T17:53:30.593Z,11.26
2018-09-24T17:56:05.147Z,11.06
2018-09-24T17:58:39.656Z,11.10
2018-09-24T18:01:14.221Z,11.00
2018-09-24T18:03:48.799Z,10.99
2018-09-24T18:06:23.180Z,10.79
2018-09-24T18:08:57.673Z,10.85
2018-09-24T18:11:32.111Z,10.72
2018-09-24T18:14:06.612Z,10.64
2018-09-24T18:16:41.008Z,10.62
2018-09-24T18:19:15.520Z,10.76
2018-09-24T18:21:49.848Z,10.57
2018-09-24T18:24:24.299Z,10.39
2018-09-24T18:26:58.808Z,10.43
2018-09-24T18:29:33.220Z,10.32
2018-09-24T18:32:07.762Z,10.28
2018-09-24T18:34:42.280Z,10.25
2018-09-24T18:37:16.893Z,10.09
2018-09-24T18:39:51.321Z,10.11
2018-09-24T18:42:25.712Z,10.14
2018-09-24T18:45:00.237Z,10.11
2018-09-24T18:47:34.711Z,9.95
2018-09-24T18:50:09.309Z,9.88
2018-09-24T18:52:43.591Z,9.90
2018-09-24T18:55:18.057Z,9.75
2018-09-24T18:57:52.605Z,9.70
2018-09-24T19:00:27.219Z,9.64
2018-09-24T19:03:01.749Z,9.65
2018-09-24T19:05:43.174Z,9.75
2018-09-24T19:08:17.710Z,9.83
2018-09-24T19:10:52.205Z,9.89
2018-09-24T19:13:26.692Z,9.80
2018-09-24T19:16:01.167Z,9.59
2018-09-24T19:18:35.733Z,9.62
2018-09-24T19:21:10.132Z,9.62
2018-09-24T19:23:44.541Z,9.53
2018-09-24T19:26:19.122Z,9.66
2018-09-24T19:28:53.584Z,9.55
2018-09-24T19:31:28.252Z,9.59
2018-09-24T19:34:02.728Z,9.60
2018-09-24T19:36:37.187Z,9.57
2018-09-24T19:39:13.475Z,9.53
2018-09-24T19:41:48.357Z,9.53
2018-09-24T19:44:23.069Z,9.54
2018-09-24T19:46:57.476Z,9.53
2018-09-24T19:49:32.042Z,9.55
2018-09-24T19:52:06.505Z,9.46
2018-09-24T19:54:40.943Z,9.37
2018-09-24T19:57:15.473Z,9.25
2018-09-24T19:59:49.872Z,9.18
2018-09-24T20:02:24.364Z,9.31
2018-09-24T20:04:58.861Z,9.24
2018-09-24T20:07:33.283Z,9.28
2018-09-24T20:10:07.920Z,9.13
2018-09-24T20:12:42.431Z,9.11
2018-09-24T20:15:16.997Z,9.04
2018-09-24T20:17:51.467Z,8.93
2018-09-24T20:20:25.993Z,9.07
2018-09-24T20:23:00.376Z,9.01
2018-09-24T20:25:34.926Z,9.10
2018-09-24T20:28:09.803Z,9.16
2018-09-24T20:30:44.172Z,9.04
2018-09-24T20:33:18.641Z,8.88
2018-09-24T20:35:53.087Z,8.88
2018-09-24T20:38:27.729Z,8.96
2018-09-24T20:41:02.209Z,8.94
2018-09-24T20:43:36.720Z,8.98
2018-09-24T20:46:11.137Z,8.99
2018-09-24T20:48:45.377Z,8.83
2018-09-24T20:51:19.928Z,8.81
2018-09-24T20:53:54.287Z,8.83
2018-09-24T20:56:28.794Z,8.89
2018-09-24T20:59:03.332Z,8.80
2018-09-24T21:01:39.149Z,8.98
2018-09-24T21:04:13.584Z,8.98
2018-09-24T21:06:48.121Z,8.83
2018-09-24T21:09:22.639Z,8.73
2018-09-24T21:11:57.158Z,8.82
2018-09-24T21:14:31.543Z,8.79
2018-09-24T21:17:05.892Z,8.98
2018-09-24T21:19:40.432Z,8.90
2018-09-24T21:22:14.921Z,8.64
2018-09-24T21:24:49.259Z,8.92
2018-09-24T21:27:23.784Z,8.77
2018-09-24T21:29:58.212Z,8.64
2018-09-24T21:32:32.627Z,8.61
2018-09-24T21:35:07.196Z,8.52
2018-09-24T21:37:41.653Z,8.41
2018-09-24T21:40:16.171Z,8.52
2018-09-24T21:42:50.568Z,8.51
2018-09-24T21:45:24.961Z,8.50
2018-09-24T21:47:59.406Z,8.49
2018-09-24T21:50:33.728Z,8.45
2018-09-24T21:53:08.208Z,8.44
2018-09-24T21:55:42.785Z,8.35
2018-09-24T21:58:17.455Z,8.39
2018-09-24T22:00:51.970Z,8.27
2018-09-24T22:03:26.524Z,8.33
2018-09-24T22:06:01.031Z,8.29
2018-09-24T22:08:35.532Z,8.38
2018-09-24T22:11:10.017Z,8.29
2018-09-24T22:13:44.477Z,8.06
2018-09-24T22:16:19.686Z,8.01
2018-09-24T22:18:54.231Z,7.89
2018-09-24T22:21:28.928Z,7.76
2018-09-24T22:24:03.259Z,7.73
2018-09-24T22:26:37.587Z,7.84
2018-09-24T22:29:12.513Z,7.93
2018-09-24T22:31:46.983Z,7.87
2018-09-24T22:34:21.538Z,7.85
2018-09-24T22:36:56.060Z,7.81
2018-09-24T22:39:30.563Z,7.72
2018-09-24T22:42:05.039Z,7.77
2018-09-24T22:44:39.536Z,7.70
2018-09-24T22:47:14.274Z,7.79
2018-09-24T22:49:48.726Z,7.85
2018-09-24T22:52:23.274Z,7.85
2018-09-24T22:54:57.777Z,7.85
2018-09-24T22:57:32.219Z,7.76
2018-09-24T23:00:06.592Z,7.71
2018-09-24T23:02:41.153Z,7.79
2018-09-24T23:05:15.392Z,7.79
2018-09-24T23:07:50.055Z,7.63
2018-09-24T23:10:24.515Z,7.66
2018-09-24T23:12:59.346Z,7.77
2018-09-24T23:15:34.563Z,7.75
2018-09-24T23:18:09.034Z,7.63
2018-09-24T23:20:43.609Z,7.82
2018-09-24T23:23:18.148Z,7.80
2018-09-24T23:25:52.891Z,7.54
2018-09-24T23:28:27.343Z,7.65
2018-09-24T23:31:01.748Z,7.61
2018-09-24T23:33:36.275Z,7.70
2018-09-24T23:36:10.719Z,7.62
2018-09-24T23:38:45.302Z,7.50
2018-09-24T23:41:19.857Z,7.41
2018-09-24T23:43:54.390Z,7.43
2018-09-24T23:46:29.001Z,7.35
2018-09-24T23:49:03.287Z,7.34
2018-09-24T23:51:37.845Z,7.36
2018-09-24T23:54:12.371Z,7.26
2018-09-24T23:56:46.763Z,7.22
2018-09-24T23:59:21.622Z,7.40
